sensor_id;sensor_type;location;lat;lon;timestamp;pressure;altitude;pressure_sealevel;temperature;humidity
63321;BME280;49449;48.800;9.534;2022-07-10T00:01:16;99184.19;;;17.88;45.85
63321;BME280;49449;48.800;9.534;2022-07-10T00:03:44;99187.41;;;17.90;45.69
63321;BME280;49449;48.800;9.534;2022-07-10T00:06:11;99190.94;;;17.95;45.59
63321;BME280;49449;48.800;9.534;2022-07-10T00:08:39;99189.03;;;17.91;45.53
63321;BME280;49449;48.800;9.534;2022-07-10T00:11:09;99191.97;;;17.89;45.20
63321;BME280;49449;48.800;9.534;2022-07-10T00:13:38;99181.47;;;17.77;45.93
63321;BME280;49449;48.800;9.534;2022-07-10T00:16:06;99178.50;;;17.74;46.22
63321;BME280;49449;48.800;9.534;2022-07-10T00:18:34;99185.72;;;17.73;46.06
63321;BME280;49449;48.800;9.534;2022-07-10T00:21:02;99185.41;;;17.65;45.83
63321;BME280;49449;48.800;9.534;2022-07-10T00:23:30;99183.69;;;17.48;46.26
63321;BME280;49449;48.800;9.534;2022-07-10T00:25:58;99186.72;;;17.57;45.97
63321;BME280;49449;48.800;9.534;2022-07-10T00:28:25;99175.28;;;17.67;45.63
63321;BME280;49449;48.800;9.534;2022-07-10T00:30:55;99172.91;;;17.75;45.54
63321;BME280;49449;48.800;9.534;2022-07-10T00:33:22;99171.84;;;17.71;45.64
63321;BME280;49449;48.800;9.534;2022-07-10T00:35:50;99180.09;;;17.70;45.50
63321;BME280;49449;48.800;9.534;2022-07-10T00:38:18;99182.53;;;17.71;45.45
63321;BME280;49449;48.800;9.534;2022-07-10T00:40:46;99182.47;;;17.61;45.76
63321;BME280;49449;48.800;9.534;2022-07-10T00:43:13;99177.66;;;17.63;45.47
63321;BME280;49449;48.800;9.534;2022-07-10T00:45:41;99178.16;;;17.60;45.60
63321;BME280;49449;48.800;9.534;2022-07-10T00:48:10;99180.53;;;17.56;45.64
63321;BME280;49449;48.800;9.534;2022-07-10T00:50:39;99185.38;;;17.59;45.63
63321;BME280;49449;48.800;9.534;2022-07-10T00:53:07;99175.69;;;17.48;45.92
63321;BME280;49449;48.800;9.534;2022-07-10T00:55:35;99178.91;;;17.50;45.59
63321;BME280;49449;48.800;9.534;2022-07-10T00:58:06;99177.56;;;17.53;45.52
63321;BME280;49449;48.800;9.534;2022-07-10T01:00:35;99170.00;;;17.39;45.81
63321;BME280;49449;48.800;9.534;2022-07-10T01:03:04;99166.84;;;17.42;45.68
63321;BME280;49449;48.800;9.534;2022-07-10T01:05:33;99162.28;;;17.43;45.79
63321;BME280;49449;48.800;9.534;2022-07-10T01:08:01;99167.63;;;17.43;45.65
63321;BME280;49449;48.800;9.534;2022-07-10T01:10:29;99155.00;;;17.33;45.61
63321;BME280;49449;48.800;9.534;2022-07-10T01:12:57;99160.03;;;17.25;45.98
63321;BME280;49449;48.800;9.534;2022-07-10T01:15:25;99160.81;;;17.20;45.94
63321;BME280;49449;48.800;9.534;2022-07-10T01:17:53;99163.41;;;17.10;46.27
63321;BME280;49449;48.800;9.534;2022-07-10T01:20:29;99170.03;;;17.02;46.40
63321;BME280;49449;48.800;9.534;2022-07-10T01:22:59;99163.34;;;17.04;46.63
63321;BME280;49449;48.800;9.534;2022-07-10T01:25:27;99158.34;;;17.13;46.05
63321;BME280;49449;48.800;9.534;2022-07-10T01:27:55;99146.09;;;17.17;46.01
63321;BME280;49449;48.800;9.534;2022-07-10T01:30:22;99152.50;;;17.16;46.22
63321;BME280;49449;48.800;9.534;2022-07-10T01:32:51;99151.91;;;17.09;45.99
63321;BME280;49449;48.800;9.534;2022-07-10T01:35:19;99149.28;;;17.14;45.90
63321;BME280;49449;48.800;9.534;2022-07-10T01:37:47;99153.22;;;17.07;46.08
63321;BME280;49449;48.800;9.534;2022-07-10T01:40:16;99162.81;;;17.02;46.12
63321;BME280;49449;48.800;9.534;2022-07-10T01:42:44;99158.47;;;16.96;46.47
63321;BME280;49449;48.800;9.534;2022-07-10T01:45:12;99150.75;;;16.95;46.37
63321;BME280;49449;48.800;9.534;2022-07-10T01:47:41;99156.38;;;16.98;46.07
63321;BME280;49449;48.800;9.534;2022-07-10T01:50:10;99146.72;;;16.92;45.89
63321;BME280;49449;48.800;9.534;2022-07-10T01:52:38;99152.28;;;16.91;45.94
63321;BME280;49449;48.800;9.534;2022-07-10T01:55:06;99154.72;;;16.92;46.10
63321;BME280;49449;48.800;9.534;2022-07-10T01:57:36;99154.47;;;16.94;45.98
63321;BME280;49449;48.800;9.534;2022-07-10T02:00:05;99164.78;;;16.85;46.23
63321;BME280;49449;48.800;9.534;2022-07-10T02:02:32;99165.28;;;16.82;46.13
63321;BME280;49449;48.800;9.534;2022-07-10T02:05:00;99163.19;;;16.84;46.03
63321;BME280;49449;48.800;9.534;2022-07-10T02:07:27;99165.09;;;16.89;45.86
63321;BME280;49449;48.800;9.534;2022-07-10T02:09:55;99174.72;;;16.90;45.85
63321;BME280;49449;48.800;9.534;2022-07-10T02:12:23;99168.34;;;16.96;45.58
63321;BME280;49449;48.800;9.534;2022-07-10T02:14:52;99168.59;;;16.94;45.74
63321;BME280;49449;48.800;9.534;2022-07-10T02:17:23;99169.09;;;16.86;46.04
63321;BME280;49449;48.800;9.534;2022-07-10T02:19:51;99160.81;;;16.88;46.08
63321;BME280;49449;48.800;9.534;2022-07-10T02:22:18;99156.34;;;16.93;45.68
63321;BME280;49449;48.800;9.534;2022-07-10T02:24:46;99155.25;;;16.94;45.66
63321;BME280;49449;48.800;9.534;2022-07-10T02:27:14;99160.09;;;16.97;45.62
63321;BME280;49449;48.800;9.534;2022-07-10T02:29:42;99167.25;;;16.92;45.56
63321;BME280;49449;48.800;9.534;2022-07-10T02:32:11;99168.56;;;16.89;45.91
63321;BME280;49449;48.800;9.534;2022-07-10T02:34:38;99172.31;;;16.88;45.97
63321;BME280;49449;48.800;9.534;2022-07-10T02:37:06;99172.34;;;16.93;45.81
63321;BME280;49449;48.800;9.534;2022-07-10T02:39:34;99167.00;;;16.93;45.96
63321;BME280;49449;48.800;9.534;2022-07-10T02:42:03;99176.59;;;16.94;45.74
63321;BME280;49449;48.800;9.534;2022-07-10T02:44:31;99175.06;;;16.98;45.58
63321;BME280;49449;48.800;9.534;2022-07-10T02:46:58;99170.81;;;17.02;45.67
63321;BME280;49449;48.800;9.534;2022-07-10T02:49:28;99178.03;;;17.07;45.67
63321;BME280;49449;48.800;9.534;2022-07-10T02:51:56;99174.38;;;17.13;45.63
63321;BME280;49449;48.800;9.534;2022-07-10T02:54:24;99176.00;;;17.14;45.78
63321;BME280;49449;48.800;9.534;2022-07-10T02:56:52;99184.75;;;17.10;46.00
63321;BME280;49449;48.800;9.534;2022-07-10T02:59:20;99180.75;;;17.12;45.62
63321;BME280;49449;48.800;9.534;2022-07-10T03:01:48;99180.50;;;17.14;45.79
63321;BME280;49449;48.800;9.534;2022-07-10T03:04:15;99175.69;;;17.11;45.65
63321;BME280;49449;48.800;9.534;2022-07-10T03:06:44;99176.50;;;17.11;45.63
63321;BME280;49449;48.800;9.534;2022-07-10T03:09:12;99182.38;;;17.13;45.62
63321;BME280;49449;48.800;9.534;2022-07-10T03:11:40;99175.38;;;17.07;45.81
63321;BME280;49449;48.800;9.534;2022-07-10T03:14:08;99180.41;;;17.03;46.04
63321;BME280;49449;48.800;9.534;2022-07-10T03:16:36;99177.72;;;16.98;46.07
63321;BME280;49449;48.800;9.534;2022-07-10T03:19:04;99183.66;;;17.06;45.92
63321;BME280;49449;48.800;9.534;2022-07-10T03:21:31;99182.63;;;17.12;45.70
63321;BME280;49449;48.800;9.534;2022-07-10T03:24:01;99188.81;;;17.17;45.70
63321;BME280;49449;48.800;9.534;2022-07-10T03:26:28;99182.41;;;17.18;45.79
63321;BME280;49449;48.800;9.534;2022-07-10T03:28:56;99187.72;;;17.13;45.60
63321;BME280;49449;48.800;9.534;2022-07-10T03:31:24;99187.41;;;17.10;45.71
63321;BME280;49449;48.800;9.534;2022-07-10T03:33:52;99184.38;;;16.96;45.90
63321;BME280;49449;48.800;9.534;2022-07-10T03:36:20;99181.34;;;16.87;46.23
63321;BME280;49449;48.800;9.534;2022-07-10T03:38:47;99179.75;;;16.86;46.22
63321;BME280;49449;48.800;9.534;2022-07-10T03:41:17;99188.63;;;16.70;46.64
63321;BME280;49449;48.800;9.534;2022-07-10T03:43:44;99182.16;;;16.60;46.59
63321;BME280;49449;48.800;9.534;2022-07-10T03:46:12;99187.22;;;16.62;46.57
63321;BME280;49449;48.800;9.534;2022-07-10T03:48:40;99189.91;;;16.62;46.67
63321;BME280;49449;48.800;9.534;2022-07-10T03:51:08;99191.31;;;16.70;46.25
63321;BME280;49449;48.800;9.534;2022-07-10T03:53:35;99176.41;;;16.74;46.13
63321;BME280;49449;48.800;9.534;2022-07-10T03:56:04;99186.25;;;16.73;46.04
63321;BME280;49449;48.800;9.534;2022-07-10T03:58:33;99170.00;;;16.75;45.89
63321;BME280;49449;48.800;9.534;2022-07-10T04:01:00;99174.91;;;16.83;45.88
63321;BME280;49449;48.800;9.534;2022-07-10T04:03:28;99177.59;;;16.83;45.88
63321;BME280;49449;48.800;9.534;2022-07-10T04:05:56;99170.06;;;16.80;45.88
63321;BME280;49449;48.800;9.534;2022-07-10T04:08:24;99175.50;;;16.90;45.44
63321;BME280;49449;48.800;9.534;2022-07-10T04:10:51;99167.00;;;16.93;45.57
63321;BME280;49449;48.800;9.534;2022-07-10T04:13:19;99169.16;;;16.96;45.24
63321;BME280;49449;48.800;9.534;2022-07-10T04:15:48;99172.41;;;16.98;45.36
63321;BME280;49449;48.800;9.534;2022-07-10T04:18:16;99169.75;;;17.03;45.19
63321;BME280;49449;48.800;9.534;2022-07-10T04:20:44;99175.13;;;17.09;45.05
63321;BME280;49449;48.800;9.534;2022-07-10T04:23:12;99167.94;;;17.09;44.97
63321;BME280;49449;48.800;9.534;2022-07-10T04:25:39;99169.81;;;17.14;44.95
63321;BME280;49449;48.800;9.534;2022-07-10T04:28:07;99173.31;;;17.19;44.77
63321;BME280;49449;48.800;9.534;2022-07-10T04:30:35;99176.63;;;17.27;44.69
63321;BME280;49449;48.800;9.534;2022-07-10T04:33:04;99172.91;;;17.33;44.60
63321;BME280;49449;48.800;9.534;2022-07-10T04:35:32;99186.00;;;17.34;44.62
63321;BME280;49449;48.800;9.534;2022-07-10T04:38:00;99188.63;;;17.29;44.59
63321;BME280;49449;48.800;9.534;2022-07-10T04:40:27;99189.09;;;17.21;44.48
63321;BME280;49449;48.800;9.534;2022-07-10T04:42:55;99194.72;;;17.25;44.35
63321;BME280;49449;48.800;9.534;2022-07-10T04:45:23;99192.09;;;17.30;44.48
63321;BME280;49449;48.800;9.534;2022-07-10T04:47:51;99191.31;;;17.29;44.15
63321;BME280;49449;48.800;9.534;2022-07-10T04:50:20;99191.09;;;17.36;43.88
63321;BME280;49449;48.800;9.534;2022-07-10T04:52:48;99188.72;;;17.39;43.86
63321;BME280;49449;48.800;9.534;2022-07-10T04:55:16;99184.72;;;17.42;43.69
63321;BME280;49449;48.800;9.534;2022-07-10T04:57:44;99184.28;;;17.18;44.25
63321;BME280;49449;48.800;9.534;2022-07-10T05:00:13;99187.22;;;17.16;44.51
63321;BME280;49449;48.800;9.534;2022-07-10T05:02:41;99186.50;;;17.31;44.17
63321;BME280;49449;48.800;9.534;2022-07-10T05:05:09;99184.44;;;17.44;43.92
63321;BME280;49449;48.800;9.534;2022-07-10T05:07:38;99187.91;;;17.39;43.68
63321;BME280;49449;48.800;9.534;2022-07-10T05:10:06;99184.44;;;17.44;43.41
63321;BME280;49449;48.800;9.534;2022-07-10T05:12:34;99186.19;;;17.55;43.54
63321;BME280;49449;48.800;9.534;2022-07-10T05:15:02;99183.81;;;17.64;43.12
63321;BME280;49449;48.800;9.534;2022-07-10T05:17:30;99188.41;;;17.73;42.82
63321;BME280;49449;48.800;9.534;2022-07-10T05:19:58;99191.34;;;17.77;42.50
63321;BME280;49449;48.800;9.534;2022-07-10T05:22:26;99200.16;;;17.77;42.46
63321;BME280;49449;48.800;9.534;2022-07-10T05:24:58;99195.66;;;17.78;42.29
63321;BME280;49449;48.800;9.534;2022-07-10T05:27:25;99200.47;;;17.81;42.23
63321;BME280;49449;48.800;9.534;2022-07-10T05:29:53;99209.84;;;17.84;42.22
63321;BME280;49449;48.800;9.534;2022-07-10T05:32:21;99208.50;;;17.86;41.79
63321;BME280;49449;48.800;9.534;2022-07-10T05:34:51;99216.53;;;17.86;41.79
63321;BME280;49449;48.800;9.534;2022-07-10T05:37:19;99219.22;;;17.91;41.15
63321;BME280;49449;48.800;9.534;2022-07-10T05:39:47;99217.91;;;17.94;40.40
63321;BME280;49449;48.800;9.534;2022-07-10T05:42:16;99216.59;;;17.96;40.24
63321;BME280;49449;48.800;9.534;2022-07-10T05:44:43;99210.97;;;17.98;40.34
63321;BME280;49449;48.800;9.534;2022-07-10T05:47:11;99219.53;;;18.00;40.13
63321;BME280;49449;48.800;9.534;2022-07-10T05:49:39;99225.16;;;18.04;40.38
63321;BME280;49449;48.800;9.534;2022-07-10T05:52:07;99224.94;;;18.10;40.07
63321;BME280;49449;48.800;9.534;2022-07-10T05:54:34;99227.59;;;18.05;39.91
63321;BME280;49449;48.800;9.534;2022-07-10T05:57:03;99230.78;;;18.02;39.87
63321;BME280;49449;48.800;9.534;2022-07-10T05:59:34;99227.59;;;18.05;39.50
63321;BME280;49449;48.800;9.534;2022-07-10T06:02:02;99237.47;;;18.05;39.98
63321;BME280;49449;48.800;9.534;2022-07-10T06:04:30;99230.28;;;18.10;39.55
63321;BME280;49449;48.800;9.534;2022-07-10T06:06:58;99226.00;;;18.09;39.78
63321;BME280;49449;48.800;9.534;2022-07-10T06:09:26;99219.06;;;18.08;39.88
63321;BME280;49449;48.800;9.534;2022-07-10T06:11:54;99226.28;;;18.08;39.32
63321;BME280;49449;48.800;9.534;2022-07-10T06:14:22;99231.63;;;18.08;39.08
63321;BME280;49449;48.800;9.534;2022-07-10T06:16:51;99232.38;;;18.03;39.18
63321;BME280;49449;48.800;9.534;2022-07-10T06:19:18;99226.19;;;17.92;39.08
63321;BME280;49449;48.800;9.534;2022-07-10T06:21:46;99224.56;;;17.91;39.08
63321;BME280;49449;48.800;9.534;2022-07-10T06:24:14;99233.09;;;17.83;38.98
63321;BME280;49449;48.800;9.534;2022-07-10T06:26:42;99233.59;;;17.80;39.44
63321;BME280;49449;48.800;9.534;2022-07-10T06:29:09;99236.25;;;17.75;39.72
63321;BME280;49449;48.800;9.534;2022-07-10T06:31:37;99242.13;;;17.77;39.54
63321;BME280;49449;48.800;9.534;2022-07-10T06:34:06;99240.25;;;17.77;39.61
63321;BME280;49449;48.800;9.534;2022-07-10T06:36:34;99242.13;;;17.77;39.77
63321;BME280;49449;48.800;9.534;2022-07-10T06:39:02;99249.06;;;17.73;39.87
63321;BME280;49449;48.800;9.534;2022-07-10T06:41:30;99241.63;;;17.80;39.51
63321;BME280;49449;48.800;9.534;2022-07-10T06:43:57;99251.81;;;17.83;39.46
63321;BME280;49449;48.800;9.534;2022-07-10T06:46:27;99245.63;;;17.83;39.76
63321;BME280;49449;48.800;9.534;2022-07-10T06:48:55;99255.31;;;17.89;39.77
63321;BME280;49449;48.800;9.534;2022-07-10T06:51:23;99254.81;;;17.97;39.51
63321;BME280;49449;48.800;9.534;2022-07-10T06:53:51;99255.94;;;18.06;39.49
63321;BME280;49449;48.800;9.534;2022-07-10T06:56:19;99253.81;;;18.08;38.47
63321;BME280;49449;48.800;9.534;2022-07-10T06:58:47;99250.63;;;18.11;37.81
63321;BME280;49449;48.800;9.534;2022-07-10T07:01:17;99250.06;;;18.14;37.77
63321;BME280;49449;48.800;9.534;2022-07-10T07:03:45;99253.28;;;18.16;37.52
63321;BME280;49449;48.800;9.534;2022-07-10T07:06:15;99254.84;;;18.07;36.43
63321;BME280;49449;48.800;9.534;2022-07-10T07:08:44;99258.03;;;18.04;35.77
63321;BME280;49449;48.800;9.534;2022-07-10T07:11:12;99246.28;;;18.00;35.42
63321;BME280;49449;48.800;9.534;2022-07-10T07:13:39;99252.69;;;17.99;35.24
63321;BME280;49449;48.800;9.534;2022-07-10T07:16:07;99261.59;;;18.15;34.89
63321;BME280;49449;48.800;9.534;2022-07-10T07:18:36;99253.88;;;18.19;35.43
63321;BME280;49449;48.800;9.534;2022-07-10T07:21:13;99256.78;;;18.17;35.12
63321;BME280;49449;48.800;9.534;2022-07-10T07:24:00;99256.53;;;18.19;34.83
63321;BME280;49449;48.800;9.534;2022-07-10T07:26:28;99254.41;;;18.21;34.67
63321;BME280;49449;48.800;9.534;2022-07-10T07:28:56;99255.44;;;18.20;34.23
63321;BME280;49449;48.800;9.534;2022-07-10T07:31:24;99246.44;;;18.26;34.36
63321;BME280;49449;48.800;9.534;2022-07-10T07:33:52;99254.75;;;18.29;34.61
63321;BME280;49449;48.800;9.534;2022-07-10T07:36:19;99247.25;;;18.31;34.28
63321;BME280;49449;48.800;9.534;2022-07-10T07:38:47;99256.88;;;18.32;34.54
63321;BME280;49449;48.800;9.534;2022-07-10T07:41:16;99258.75;;;18.32;34.58
63321;BME280;49449;48.800;9.534;2022-07-10T07:43:44;99264.59;;;18.24;34.70
63321;BME280;49449;48.800;9.534;2022-07-10T07:46:12;99260.59;;;18.26;34.43
63321;BME280;49449;48.800;9.534;2022-07-10T07:48:40;99254.22;;;18.38;33.80
63321;BME280;49449;48.800;9.534;2022-07-10T07:51:08;99261.50;;;18.52;33.48
63321;BME280;49449;48.800;9.534;2022-07-10T07:53:36;99260.22;;;18.70;33.80
63321;BME280;49449;48.800;9.534;2022-07-10T07:56:04;99265.59;;;18.86;33.29
63321;BME280;49449;48.800;9.534;2022-07-10T07:58:33;99262.13;;;18.80;33.14
63321;BME280;49449;48.800;9.534;2022-07-10T08:01:01;99264.78;;;18.85;33.11
63321;BME280;49449;48.800;9.534;2022-07-10T08:03:30;99267.75;;;18.84;33.28
63321;BME280;49449;48.800;9.534;2022-07-10T08:06:15;99262.94;;;18.91;33.36
63321;BME280;49449;48.800;9.534;2022-07-10T08:08:43;99266.66;;;18.80;32.75
63321;BME280;49449;48.800;9.534;2022-07-10T08:11:10;99267.97;;;18.72;32.84
63321;BME280;49449;48.800;9.534;2022-07-10T08:13:40;99262.66;;;18.82;32.47
63321;BME280;49449;48.800;9.534;2022-07-10T08:16:09;99262.09;;;18.85;32.33
63321;BME280;49449;48.800;9.534;2022-07-10T08:18:37;99264.78;;;18.90;32.79
63321;BME280;49449;48.800;9.534;2022-07-10T08:21:05;99268.34;;;18.96;32.96
63321;BME280;49449;48.800;9.534;2022-07-10T08:23:33;99261.91;;;18.97;32.08
63321;BME280;49449;48.800;9.534;2022-07-10T08:26:01;99254.13;;;18.96;33.28
63321;BME280;49449;48.800;9.534;2022-07-10T08:28:28;99263.78;;;18.97;32.44
63321;BME280;49449;48.800;9.534;2022-07-10T08:30:57;99259.50;;;19.06;32.55
63321;BME280;49449;48.800;9.534;2022-07-10T08:33:25;99262.19;;;19.06;32.31
63321;BME280;49449;48.800;9.534;2022-07-10T08:35:53;99264.06;;;19.21;32.54
63321;BME280;49449;48.800;9.534;2022-07-10T08:38:36;99260.06;;;19.44;32.49
63321;BME280;49449;48.800;9.534;2022-07-10T08:41:05;99247.22;;;19.61;32.28
63321;BME280;49449;48.800;9.534;2022-07-10T08:43:33;99244.16;;;19.99;31.90
63321;BME280;49449;48.800;9.534;2022-07-10T08:46:04;99235.53;;;20.12;31.43
63321;BME280;49449;48.800;9.534;2022-07-10T08:48:33;99237.34;;;20.37;30.21
63321;BME280;49449;48.800;9.534;2022-07-10T08:51:04;99231.19;;;20.32;29.63
63321;BME280;49449;48.800;9.534;2022-07-10T08:53:34;99231.09;;;20.52;29.75
63321;BME280;49449;48.800;9.534;2022-07-10T08:56:04;99238.81;;;20.64;29.30
63321;BME280;49449;48.800;9.534;2022-07-10T08:58:32;99245.00;;;20.59;29.13
63321;BME280;49449;48.800;9.534;2022-07-10T09:01:03;99242.94;;;20.46;29.02
63321;BME280;49449;48.800;9.534;2022-07-10T09:03:31;99241.53;;;20.54;29.31
63321;BME280;49449;48.800;9.534;2022-07-10T09:06:00;99237.16;;;20.68;29.38
63321;BME280;49449;48.800;9.534;2022-07-10T09:08:28;99236.53;;;20.87;29.38
63321;BME280;49449;48.800;9.534;2022-07-10T09:11:14;99245.66;;;20.91;28.27
63321;BME280;49449;48.800;9.534;2022-07-10T09:13:49;99244.41;;;20.73;28.56
63321;BME280;49449;48.800;9.534;2022-07-10T09:16:25;99239.78;;;20.78;28.62
63321;BME280;49449;48.800;9.534;2022-07-10T09:18:54;99243.53;;;20.77;28.74
63321;BME280;49449;48.800;9.534;2022-07-10T09:21:23;99249.19;;;20.76;29.07
63321;BME280;49449;48.800;9.534;2022-07-10T09:23:55;99255.66;;;20.75;29.48
63321;BME280;49449;48.800;9.534;2022-07-10T09:26:26;99249.91;;;20.92;29.43
63321;BME280;49449;48.800;9.534;2022-07-10T09:29:05;99243.25;;;20.84;29.26
63321;BME280;49449;48.800;9.534;2022-07-10T09:31:50;99248.84;;;20.88;29.11
63321;BME280;49449;48.800;9.534;2022-07-10T09:34:35;99240.22;;;21.01;28.64
63321;BME280;49449;48.800;9.534;2022-07-10T09:37:17;99248.31;;;21.25;27.96
63321;BME280;49449;48.800;9.534;2022-07-10T09:39:56;99261.38;;;21.42;28.12
63321;BME280;49449;48.800;9.534;2022-07-10T09:42:29;99244.44;;;21.71;27.63
63321;BME280;49449;48.800;9.534;2022-07-10T09:45:17;99249.72;;;21.81;28.42
63321;BME280;49449;48.800;9.534;2022-07-10T09:47:55;99254.50;;;21.89;26.50
63321;BME280;49449;48.800;9.534;2022-07-10T09:50:25;99253.19;;;21.82;26.90
63321;BME280;49449;48.800;9.534;2022-07-10T09:52:55;99251.63;;;21.81;26.83
63321;BME280;49449;48.800;9.534;2022-07-10T09:55:25;99256.78;;;21.43;26.76
63321;BME280;49449;48.800;9.534;2022-07-10T09:57:55;99262.25;;;21.32;27.13
63321;BME280;49449;48.800;9.534;2022-07-10T10:00:25;99256.72;;;21.18;26.91
63321;BME280;49449;48.800;9.534;2022-07-10T10:02:58;99256.09;;;21.27;26.30
63321;BME280;49449;48.800;9.534;2022-07-10T10:05:33;99249.75;;;21.17;26.64
63321;BME280;49449;48.800;9.534;2022-07-10T10:08:09;99233.69;;;21.07;26.09
63321;BME280;49449;48.800;9.534;2022-07-10T10:10:42;99248.47;;;21.10;27.12
63321;BME280;49449;48.800;9.534;2022-07-10T10:13:15;99248.88;;;20.83;26.88
63321;BME280;49449;48.800;9.534;2022-07-10T10:15:44;99246.47;;;20.81;27.32
63321;BME280;49449;48.800;9.534;2022-07-10T10:18:17;99236.69;;;21.01;27.34
63321;BME280;49449;48.800;9.534;2022-07-10T10:20:45;99237.94;;;21.18;26.66
63321;BME280;49449;48.800;9.534;2022-07-10T10:23:14;99230.38;;;21.50;26.00
63321;BME280;49449;48.800;9.534;2022-07-10T10:25:44;99230.59;;;21.53;26.03
63321;BME280;49449;48.800;9.534;2022-07-10T10:28:13;99225.53;;;21.52;26.47
63321;BME280;49449;48.800;9.534;2022-07-10T10:30:44;99229.94;;;21.08;25.33
63321;BME280;49449;48.800;9.534;2022-07-10T10:33:45;99235.84;;;21.10;27.90
63321;BME280;49449;48.800;9.534;2022-07-10T10:39:13;99233.28;;;20.85;26.30
63321;BME280;49449;48.800;9.534;2022-07-10T10:41:46;99234.34;;;20.89;26.23
63321;BME280;49449;48.800;9.534;2022-07-10T10:44:25;99231.72;;;21.18;26.45
63321;BME280;49449;48.800;9.534;2022-07-10T10:47:06;99218.81;;;21.49;26.95
63321;BME280;49449;48.800;9.534;2022-07-10T10:50:04;99225.81;;;21.55;26.82
63321;BME280;49449;48.800;9.534;2022-07-10T10:52:32;99227.25;;;21.72;24.96
63321;BME280;49449;48.800;9.534;2022-07-10T10:55:05;99225.63;;;21.71;25.17
63321;BME280;49449;48.800;9.534;2022-07-10T10:57:37;99221.53;;;21.79;25.94
63321;BME280;49449;48.800;9.534;2022-07-10T11:00:07;99229.81;;;21.53;25.63
63321;BME280;49449;48.800;9.534;2022-07-10T11:02:37;99242.81;;;21.41;25.83
63321;BME280;49449;48.800;9.534;2022-07-10T11:05:41;99235.28;;;21.43;26.11
63321;BME280;49449;48.800;9.534;2022-07-10T11:08:10;99222.59;;;21.48;25.47
63321;BME280;49449;48.800;9.534;2022-07-10T11:10:40;99218.47;;;21.61;25.42
63321;BME280;49449;48.800;9.534;2022-07-10T11:13:12;99218.81;;;21.49;25.51
63321;BME280;49449;48.800;9.534;2022-07-10T11:15:41;99226.34;;;21.52;25.30
63321;BME280;49449;48.800;9.534;2022-07-10T11:18:11;99229.66;;;21.39;25.89
63321;BME280;49449;48.800;9.534;2022-07-10T11:20:43;99231.00;;;21.07;25.12
63321;BME280;49449;48.800;9.534;2022-07-10T11:23:39;99239.03;;;21.12;26.34
63321;BME280;49449;48.800;9.534;2022-07-10T11:26:13;99238.78;;;21.09;24.78
63321;BME280;49449;48.800;9.534;2022-07-10T11:28:51;99228.50;;;21.21;25.68
63321;BME280;49449;48.800;9.534;2022-07-10T11:31:21;99226.47;;;21.37;24.50
63321;BME280;49449;48.800;9.534;2022-07-10T11:33:50;99219.66;;;21.45;25.44
63321;BME280;49449;48.800;9.534;2022-07-10T11:36:22;99215.72;;;21.37;24.85
63321;BME280;49449;48.800;9.534;2022-07-10T11:38:56;99218.69;;;21.35;25.08
63321;BME280;49449;48.800;9.534;2022-07-10T11:41:25;99221.09;;;21.37;25.99
63321;BME280;49449;48.800;9.534;2022-07-10T11:43:54;99218.03;;;21.20;24.85
63321;BME280;49449;48.800;9.534;2022-07-10T11:46:25;99217.31;;;21.09;25.17
63321;BME280;49449;48.800;9.534;2022-07-10T11:48:53;99218.50;;;21.27;24.84
63321;BME280;49449;48.800;9.534;2022-07-10T11:51:26;99197.94;;;21.41;24.28
63321;BME280;49449;48.800;9.534;2022-07-10T11:53:56;99200.53;;;21.51;25.02
63321;BME280;49449;48.800;9.534;2022-07-10T11:56:25;99198.72;;;21.47;25.56
63321;BME280;49449;48.800;9.534;2022-07-10T11:58:54;99203.03;;;21.43;25.29
63321;BME280;49449;48.800;9.534;2022-07-10T12:01:22;99218.78;;;21.25;25.08
63321;BME280;49449;48.800;9.534;2022-07-10T12:03:57;99216.38;;;21.24;25.09
63321;BME280;49449;48.800;9.534;2022-07-10T12:06:26;99219.91;;;21.19;25.54
63321;BME280;49449;48.800;9.534;2022-07-10T12:08:55;99217.44;;;21.28;25.28
63321;BME280;49449;48.800;9.534;2022-07-10T12:11:23;99212.66;;;21.54;25.81
63321;BME280;49449;48.800;9.534;2022-07-10T12:13:51;99206.06;;;21.65;25.08
63321;BME280;49449;48.800;9.534;2022-07-10T12:16:20;99205.59;;;21.58;25.07
63321;BME280;49449;48.800;9.534;2022-07-10T12:18:50;99206.16;;;21.55;25.51
63321;BME280;49449;48.800;9.534;2022-07-10T12:21:18;99201.41;;;21.47;25.02
63321;BME280;49449;48.800;9.534;2022-07-10T12:23:48;99203.66;;;21.64;25.30
63321;BME280;49449;48.800;9.534;2022-07-10T12:26:17;99208.00;;;21.60;25.20
63321;BME280;49449;48.800;9.534;2022-07-10T12:28:51;99216.06;;;21.60;25.14
63321;BME280;49449;48.800;9.534;2022-07-10T12:31:23;99209.59;;;21.61;24.33
63321;BME280;49449;48.800;9.534;2022-07-10T12:33:53;99216.34;;;21.58;24.84
63321;BME280;49449;48.800;9.534;2022-07-10T12:36:21;99217.81;;;21.45;24.88
63321;BME280;49449;48.800;9.534;2022-07-10T12:38:55;99214.00;;;21.46;25.81
63321;BME280;49449;48.800;9.534;2022-07-10T12:41:25;99210.75;;;21.54;24.97
63321;BME280;49449;48.800;9.534;2022-07-10T12:43:53;99216.16;;;21.79;25.15
63321;BME280;49449;48.800;9.534;2022-07-10T12:46:23;99215.97;;;21.70;24.82
63321;BME280;49449;48.800;9.534;2022-07-10T12:49:06;99211.44;;;21.65;25.40
63321;BME280;49449;48.800;9.534;2022-07-10T12:51:43;99205.03;;;21.61;24.16
63321;BME280;49449;48.800;9.534;2022-07-10T12:54:33;99217.47;;;21.52;25.17
63321;BME280;49449;48.800;9.534;2022-07-10T12:57:02;99214.34;;;21.69;25.13
63321;BME280;49449;48.800;9.534;2022-07-10T12:59:32;99216.63;;;21.57;25.19
63321;BME280;49449;48.800;9.534;2022-07-10T13:02:14;99209.78;;;21.40;24.85
63321;BME280;49449;48.800;9.534;2022-07-10T13:04:52;99213.34;;;21.30;25.85
63321;BME280;49449;48.800;9.534;2022-07-10T13:07:28;99208.13;;;21.44;24.55
63321;BME280;49449;48.800;9.534;2022-07-10T13:09:59;99202.97;;;21.48;24.30
63321;BME280;49449;48.800;9.534;2022-07-10T13:12:29;99206.00;;;21.41;24.86
63321;BME280;49449;48.800;9.534;2022-07-10T13:14:57;99211.53;;;21.26;24.97
63321;BME280;49449;48.800;9.534;2022-07-10T13:17:25;99216.06;;;20.96;24.49